Terminal Aerodrome Forecast
Issued by NWS

Home | Current Version | Previous Version | Text Only | Print | Product List | Glossary On
Versions: 1 2 3 4 5 6 7 8 9 10 11 12 13
064
FTUS42 KMLB 300051 AAA
TAFTIX
TAF AMD
KTIX 300051Z 3001/3024 12008KT P6SM VCSH SCT040 BKN100 BKN250
      TEMPO 3001/3002 3SM TSRA BKN040CB
     FM300400 00000KT P6SM FEW025 SCT250
     FM301400 27006KT P6SM SCT025
     FM301700 07008KT P6SM SCT040 BKN250
      AMD NOT SKED 3001/3011=

USA.gov is the U.S. government's official web portal to all federal, state and local government web resources and services.